Terminal Aerodrome Forecast
Issued by NWS Cleveland, OH

Home | Current Version | Previous Version | Graphics & Text | Print | Product List | Glossary Off
Versions: 1 2 3 4 5 6 7 8 9 10 11 12 13 14 15 16 17 18 19 20 21 22 23 24 25 26

562
FTUS41 KCLE 272341
TAFERI
TAF
KERI 272341Z 2800/2824 VRB03KT P6SM BKN120 OVC250
     FM280700 00000KT 4SM BR SCT015 OVC025
     FM281000 02010KT 4SM -RA BR SCT006 OVC012
      TEMPO 2813/2817 2SM -RA BR OVC006
     FM281900 36010KT P6SM OVC015=

USA.gov is the U.S. government's official web portal to all federal, state and local government web resources and services.